createdAt,value
2019-05-30T00:00:12.532Z,1.35
2019-05-30T00:02:27.488Z,1.62
2019-05-30T00:04:54.318Z,1.80
2019-05-30T00:07:20.983Z,1.80
2019-05-30T00:09:47.797Z,1.50
2019-05-30T00:12:14.608Z,1.60
2019-05-30T00:14:41.314Z,1.37
2019-05-30T00:17:07.917Z,1.42
2019-05-30T00:19:34.702Z,1.50
2019-05-30T00:22:01.585Z,1.40
2019-05-30T00:24:30.081Z,1.17
2019-05-30T00:26:58.413Z,1.20
2019-05-30T00:29:25.371Z,2.00
2019-05-30T00:31:52.016Z,1.40
2019-05-30T00:34:19.489Z,1.72
2019-05-30T00:36:46.230Z,1.25
2019-05-30T00:39:12.996Z,1.50
2019-05-30T00:41:39.578Z,1.72
2019-05-30T00:44:06.405Z,1.17
2019-05-30T00:46:33.248Z,1.65
2019-05-30T09:17:39.319Z,2.35
2019-05-30T09:20:07.789Z,3.15
2019-05-30T09:22:35.016Z,2.98
2019-05-30T09:25:01.806Z,2.65
2019-05-30T09:27:28.920Z,3.12
2019-05-30T09:29:56.207Z,2.70
2019-05-30T09:32:23.055Z,3.08
2019-05-30T09:34:51.914Z,3.30
2019-05-30T09:37:18.615Z,2.98
2019-05-30T09:39:45.830Z,2.90
2019-05-30T09:42:12.620Z,3.22
2019-05-30T09:44:40.464Z,3.00
2019-05-30T09:47:07.749Z,2.70
2019-05-30T09:49:34.927Z,2.83
2019-05-30T09:52:01.712Z,3.22
2019-05-30T09:54:28.433Z,3.20
2019-05-30T09:56:57.363Z,3.27
2019-05-30T09:59:23.852Z,3.10
2019-05-30T10:01:50.623Z,3.12
2019-05-30T10:04:17.412Z,3.30
2019-05-30T10:06:44.670Z,3.20
2019-05-30T10:09:11.567Z,3.17
2019-05-30T10:11:38.372Z,3.12
2019-05-30T10:14:05.266Z,3.10
2019-05-30T10:16:32.090Z,3.02
2019-05-30T10:18:58.930Z,3.22
2019-05-30T10:21:25.599Z,3.00
2019-05-30T10:23:53.692Z,3.87
2019-05-30T10:26:20.508Z,3.42
2019-05-30T10:28:49.137Z,3.17
2019-05-30T10:31:16.414Z,2.98
2019-05-30T10:33:44.293Z,3.33
2019-05-30T10:36:14.712Z,3.65
2019-05-30T10:38:40.966Z,3.80
2019-05-30T10:41:07.942Z,3.35
2019-05-30T10:43:34.530Z,3.60
2019-05-30T10:46:04.142Z,2.72
2019-05-30T10:48:30.967Z,1.80
2019-05-30T10:51:01.153Z,2.20
2019-05-30T10:53:27.855Z,1.85
2019-05-30T10:55:54.953Z,2.33
2019-05-30T10:58:22.389Z,1.80
2019-05-30T11:00:55.563Z,1.40
2019-05-30T11:03:23.878Z,1.42
2019-05-30T11:06:01.762Z,1.52
2019-05-30T11:08:30.836Z,1.60
2019-05-30T11:10:57.501Z,1.75
2019-05-30T11:13:24.311Z,1.87
2019-05-30T11:15:53.424Z,1.72
2019-05-30T11:18:20.863Z,1.50
2019-05-30T11:21:07.194Z,1.70
2019-05-30T11:23:33.869Z,1.50
2019-05-30T11:26:00.674Z,3.62
2019-05-30T11:28:27.465Z,2.05
2019-05-30T11:30:54.813Z,2.60
2019-05-30T11:33:22.820Z,2.05
2019-05-30T11:35:49.490Z,1.60
2019-05-30T11:38:16.202Z,1.30
2019-05-30T11:40:42.896Z,1.45
2019-05-30T11:43:09.740Z,1.50
2019-05-30T11:45:36.555Z,1.35
2019-05-30T11:48:03.379Z,1.20
2019-05-30T11:50:30.414Z,1.50
2019-05-30T11:52:57.959Z,1.22
2019-05-30T11:55:24.889Z,1.40
2019-05-30T11:57:52.060Z,1.62
2019-05-30T12:00:19.334Z,1.40
2019-05-30T12:02:46.153Z,1.60
2019-05-30T12:05:13.486Z,1.25
2019-05-30T12:07:40.177Z,1.45
2019-05-30T12:10:07.050Z,1.30
2019-05-30T12:12:33.898Z,1.05
2019-05-30T12:15:01.662Z,2.60
2019-05-30T12:17:28.682Z,2.40
2019-05-30T12:19:56.029Z,2.15
2019-05-30T12:22:22.935Z,2.37
2019-05-30T12:24:49.655Z,1.70
2019-05-30T12:27:16.444Z,1.72
2019-05-30T12:29:43.127Z,1.90
2019-05-30T12:32:09.811Z,1.80
2019-05-30T12:34:38.737Z,2.08
2019-05-30T12:37:05.507Z,1.70
2019-05-30T12:39:32.205Z,1.55
2019-05-30T12:41:59.091Z,1.17
2019-05-30T12:44:25.946Z,1.52
2019-05-30T12:46:53.372Z,1.60
2019-05-30T12:49:20.366Z,1.70
2019-05-30T12:51:47.144Z,1.90
2019-05-30T12:54:13.823Z,1.40
2019-05-30T12:56:40.487Z,1.40
2019-05-30T12:59:07.286Z,1.40
2019-05-30T13:01:33.967Z,1.80
2019-05-30T13:04:01.118Z,1.50
2019-05-30T13:06:27.844Z,1.82
2019-05-30T13:08:55.042Z,1.57
2019-05-30T13:11:23.326Z,1.35
2019-05-30T13:13:50.133Z,1.72
2019-05-30T13:16:16.957Z,2.05
2019-05-30T13:18:43.957Z,1.92
2019-05-30T13:21:11.106Z,1.90
2019-05-30T13:23:37.892Z,1.90
2019-05-30T13:26:05.896Z,1.50
2019-05-30T13:28:32.799Z,1.40
2019-05-30T13:31:00.292Z,1.75
2019-05-30T13:33:27.013Z,1.67
2019-05-30T13:35:54.147Z,2.08
2019-05-30T13:38:26.334Z,1.57
2019-05-30T13:40:51.953Z,1.67
2019-05-30T13:43:18.624Z,1.40
2019-05-30T13:45:45.478Z,1.55
2019-05-30T13:48:12.238Z,2.02
2019-05-30T13:50:39.063Z,2.00
2019-05-30T13:53:07.329Z,1.90
2019-05-30T13:55:35.007Z,1.90
2019-05-30T13:58:02.087Z,2.20
2019-05-30T14:00:31.663Z,1.70
2019-05-30T14:02:58.424Z,1.67
2019-05-30T14:05:25.564Z,1.60
2019-05-30T14:07:52.323Z,1.60
2019-05-30T14:10:19.512Z,1.62
2019-05-30T14:12:46.287Z,2.00
2019-05-30T14:15:14.574Z,1.70
2019-05-30T14:17:41.482Z,1.90
2019-05-30T14:20:11.221Z,1.95
2019-05-30T14:22:38.432Z,2.50
2019-05-30T14:25:08.043Z,1.75
2019-05-30T14:27:34.811Z,2.00
2019-05-30T14:30:03.090Z,2.00
2019-05-30T14:32:29.916Z,2.33
2019-05-30T14:34:56.720Z,1.90
2019-05-30T14:37:26.513Z,2.22
2019-05-30T14:39:53.314Z,2.22
2019-05-30T14:42:20.196Z,2.35
2019-05-30T14:44:46.856Z,2.37
2019-05-30T14:47:13.559Z,2.70
2019-05-30T14:49:40.393Z,2.47
2019-05-30T14:52:08.847Z,2.45
2019-05-30T14:54:35.533Z,2.33
2019-05-30T14:59:42.934Z,2.50
2019-05-30T15:02:11.210Z,2.30
2019-05-30T15:04:38.200Z,2.42
2019-05-30T15:07:05.352Z,2.40
2019-05-30T15:09:32.857Z,2.60
2019-05-30T15:11:59.955Z,2.42
2019-05-30T15:14:26.633Z,2.65
2019-05-30T15:16:53.431Z,2.58
2019-05-30T15:19:20.223Z,3.08
2019-05-30T15:21:47.215Z,3.35
2019-05-30T15:24:14.355Z,2.95
2019-05-30T15:26:41.201Z,2.85
2019-05-30T15:29:08.168Z,2.67
2019-05-30T15:31:34.994Z,2.30
2019-05-30T15:34:01.673Z,2.85
2019-05-30T15:36:28.724Z,2.72
2019-05-30T15:38:55.291Z,2.52
2019-05-30T15:41:22.080Z,2.52
2019-05-30T15:43:48.872Z,2.80
2019-05-30T15:46:15.917Z,3.00
2019-05-30T15:48:42.822Z,3.72
2019-05-30T15:51:10.429Z,4.25
2019-05-30T15:53:38.239Z,3.85
2019-05-30T15:56:05.023Z,3.12
2019-05-30T15:58:31.733Z,4.05
2019-05-30T16:00:58.503Z,3.60
2019-05-30T16:03:25.101Z,3.17
2019-05-30T16:05:53.076Z,3.30
2019-05-30T16:08:20.960Z,3.60
2019-05-30T16:10:48.114Z,4.55
2019-05-30T16:13:15.318Z,4.42
2019-05-30T16:15:44.503Z,4.15
2019-05-30T16:18:11.604Z,5.15
2019-05-30T16:20:38.488Z,4.05
2019-05-30T16:23:05.353Z,4.20
2019-05-30T16:25:32.125Z,4.33
2019-05-30T16:27:58.921Z,5.12
2019-05-30T16:30:27.153Z,4.58
2019-05-30T16:32:54.101Z,4.97
2019-05-30T16:35:22.158Z,4.47
2019-05-30T16:37:48.908Z,5.15
2019-05-30T16:40:16.429Z,5.28
2019-05-30T16:42:43.752Z,5.12
2019-05-30T16:45:18.710Z,5.78
2019-05-30T16:47:42.812Z,5.05
2019-05-30T16:50:10.526Z,5.78
2019-05-30T16:52:37.354Z,5.97
2019-05-30T16:55:05.477Z,6.00
2019-05-30T16:57:32.268Z,5.92
2019-05-30T16:59:59.091Z,6.60
2019-05-30T17:02:26.953Z,5.78
2019-05-30T17:04:53.883Z,5.80
2019-05-30T17:07:21.527Z,6.17
2019-05-30T17:09:50.616Z,5.87
2019-05-30T17:12:17.524Z,6.45
2019-05-30T17:14:44.183Z,6.15
2019-05-30T17:17:11.277Z,7.50
2019-05-30T17:19:39.440Z,6.60
2019-05-30T17:22:06.513Z,7.00
2019-05-30T17:24:33.510Z,6.53
2019-05-30T17:27:00.230Z,6.83
2019-05-30T17:29:27.719Z,7.10
2019-05-30T17:31:54.607Z,6.65
2019-05-30T17:34:21.841Z,6.55
2019-05-30T17:36:49.224Z,6.58
2019-05-30T17:39:18.812Z,7.12
2019-05-30T17:41:46.705Z,6.80
2019-05-30T17:44:13.496Z,6.60
2019-05-30T17:46:40.298Z,6.78
2019-05-30T17:49:07.306Z,6.53
2019-05-30T17:51:34.437Z,6.60
2019-05-30T17:54:01.324Z,6.35
2019-05-30T17:56:28.277Z,6.17
2019-05-30T17:58:55.117Z,6.05
2019-05-30T18:01:22.240Z,5.20
2019-05-30T18:03:49.871Z,5.80
2019-05-30T18:06:16.677Z,5.35
2019-05-30T18:08:43.369Z,5.92
2019-05-30T18:11:10.195Z,5.70
2019-05-30T18:13:36.988Z,5.60
2019-05-30T18:16:03.800Z,5.97
2019-05-30T18:18:31.385Z,6.03
2019-05-30T18:20:58.689Z,5.58
2019-05-30T18:23:26.050Z,6.05
2019-05-30T18:25:54.583Z,6.05
2019-05-30T18:28:23.622Z,5.72
2019-05-30T18:30:50.560Z,5.58
2019-05-30T18:33:17.269Z,5.92
2019-05-30T18:35:44.431Z,6.10
2019-05-30T18:38:11.229Z,6.03
2019-05-30T18:40:38.000Z,6.33
2019-05-30T18:43:04.801Z,6.67
2019-05-30T18:45:36.790Z,6.78
2019-05-30T18:48:03.594Z,5.83
2019-05-30T18:50:31.624Z,6.85
2019-05-30T18:52:58.505Z,7.17
2019-05-30T18:55:28.554Z,6.92
2019-05-30T18:57:55.357Z,7.47
2019-05-30T19:00:22.141Z,7.03
2019-05-30T19:02:48.810Z,7.08
2019-05-30T19:05:16.510Z,7.47
2019-05-30T19:07:43.210Z,7.92
2019-05-30T19:10:10.005Z,7.67
2019-05-30T19:12:36.783Z,7.92
2019-05-30T19:15:27.184Z,7.72
2019-05-30T19:17:53.579Z,8.73
2019-05-30T19:20:22.745Z,8.88
2019-05-30T19:22:49.515Z,8.75
2019-05-30T19:25:16.333Z,8.93
2019-05-30T19:27:43.148Z,9.38
2019-05-30T19:30:11.409Z,9.05
2019-05-30T19:32:38.495Z,8.83
2019-05-30T19:35:07.483Z,8.70
2019-05-30T19:37:35.428Z,10.48
2019-05-30T19:40:02.351Z,9.70
2019-05-30T19:42:29.333Z,9.95
2019-05-30T19:45:00.405Z,9.83
2019-05-30T19:47:28.560Z,10.80
2019-05-30T19:49:55.911Z,10.55
2019-05-30T19:52:22.699Z,10.25
2019-05-30T19:54:49.487Z,12.13
2019-05-30T19:57:16.194Z,10.95
2019-05-30T19:59:43.035Z,9.35
2019-05-30T20:02:09.811Z,12.07
2019-05-30T20:04:36.682Z,11.90
2019-05-30T20:07:03.457Z,11.75
2019-05-30T20:09:30.488Z,10.68
2019-05-30T20:12:03.849Z,11.25
2019-05-30T20:14:26.042Z,11.60
2019-05-30T20:16:52.818Z,11.78
2019-05-30T20:19:19.619Z,13.62
2019-05-30T20:21:46.397Z,13.83
2019-05-30T20:24:13.191Z,13.08
2019-05-30T20:26:40.668Z,12.43
2019-05-30T20:29:07.519Z,13.00
2019-05-30T20:31:35.583Z,13.48
2019-05-30T20:34:02.433Z,13.25
2019-05-30T20:36:30.406Z,13.38
2019-05-30T20:38:57.204Z,13.43
2019-05-30T20:41:23.873Z,13.45
2019-05-30T20:43:50.659Z,14.15
2019-05-30T20:46:23.127Z,13.62
2019-05-30T20:48:46.015Z,15.30
2019-05-30T20:51:21.108Z,14.35
2019-05-30T20:53:41.654Z,15.75
2019-05-30T20:56:08.432Z,14.38
2019-05-30T20:58:35.533Z,11.93
2019-05-30T21:01:02.642Z,12.70
2019-05-30T21:03:29.438Z,14.70
2019-05-30T21:05:56.891Z,14.85
2019-05-30T21:08:23.661Z,14.58
2019-05-30T21:11:12.269Z,11.60
2019-05-30T21:13:44.288Z,12.03
2019-05-30T21:16:15.971Z,12.00
2019-05-30T21:18:44.389Z,11.68
2019-05-30T21:21:11.337Z,12.68
2019-05-30T21:23:38.309Z,13.55
2019-05-30T21:26:05.180Z,12.25
2019-05-30T21:28:31.954Z,14.50
2019-05-30T21:30:58.543Z,14.35
2019-05-30T21:33:25.334Z,13.83
2019-05-30T21:35:52.021Z,12.90
2019-05-30T21:38:18.841Z,12.82
2019-05-30T21:40:46.577Z,13.20
2019-05-30T21:43:13.299Z,12.78
2019-05-30T21:45:40.437Z,11.68
2019-05-30T21:48:07.170Z,12.82
2019-05-30T21:50:34.240Z,11.78
2019-05-30T21:53:01.338Z,11.78
2019-05-30T21:55:30.264Z,11.63
2019-05-30T21:57:57.058Z,11.18
2019-05-30T22:00:51.056Z,13.62
2019-05-30T22:03:17.906Z,11.43
2019-05-30T22:05:45.857Z,11.85
2019-05-30T22:08:13.562Z,12.98
2019-05-30T22:10:41.272Z,12.25
2019-05-30T22:13:09.755Z,12.00
2019-05-30T22:15:36.686Z,13.15
2019-05-30T22:21:46.016Z,12.53
2019-05-30T22:24:12.982Z,11.63
2019-05-30T22:26:39.787Z,11.88
2019-05-30T22:29:06.592Z,10.78
2019-05-30T22:31:33.395Z,11.95
2019-05-30T22:34:00.164Z,11.63
2019-05-30T22:36:26.957Z,11.05
2019-05-30T22:38:53.719Z,10.38
2019-05-30T22:41:20.507Z,10.43
2019-05-30T22:43:48.244Z,10.18
2019-05-30T22:46:15.074Z,10.72
2019-05-30T22:48:41.967Z,10.38
2019-05-30T22:51:08.748Z,10.23
2019-05-30T22:53:35.439Z,10.75
2019-05-30T22:56:02.109Z,10.78
2019-05-30T22:58:29.077Z,10.55
2019-05-30T23:00:56.200Z,9.80
2019-05-30T23:03:23.084Z,9.83
2019-05-30T23:05:51.118Z,10.05
2019-05-30T23:08:18.588Z,10.10
2019-05-30T23:10:45.623Z,11.10
2019-05-30T23:13:13.763Z,11.60
2019-05-30T23:15:40.635Z,10.55
2019-05-30T23:18:07.426Z,10.58
2019-05-30T23:20:34.203Z,9.60
2019-05-30T23:23:00.809Z,10.43
2019-05-30T23:25:27.606Z,9.60
2019-05-30T23:27:54.325Z,9.70
2019-05-30T23:30:21.802Z,9.70
2019-05-30T23:32:48.498Z,9.78
2019-05-30T23:35:15.371Z,9.63
2019-05-30T23:37:42.152Z,9.38
2019-05-30T23:40:09.323Z,10.53
2019-05-30T23:42:36.052Z,9.15
2019-05-30T23:45:02.950Z,9.23
2019-05-30T23:47:29.736Z,8.98
2019-05-30T23:49:56.515Z,9.05
2019-05-30T23:52:23.210Z,9.03
2019-05-30T23:54:50.073Z,9.30
2019-05-30T23:57:16.872Z,9.95
2019-05-30T23:59:43.645Z,9.80
